x

West Dixon Entrance (46205) Wave Buoy

12:00pm - Thu 19th Jan 2017 All times are PST. -8 hours from GMT.

  • Sig Wave height 9.8ft
  • Peak Period 10s
  • Wind
    13mph, 18mph gusts
  • Sea Temp 46°f
  • Air Temp 42°f
  • Sea Pressure 989.8mb
  • West Dixon Entrance
  • West Dixon Entrance

More Historic Weather Station data

Upgrade to MSW Pro to gain access to the past 30 days of data for over 8000 Wavebouys and Weather Stations around the globe.

Join Pro

Comparision Forecast

View Surf forecast
   
Thu 01/19 12:00pm 10ft 10s 13 18 mph 989.8mb 46f 42f
11:00am 11ft 12s 13 18 mph 989.5mb 46f 42f
10:00am 11.5ft 10s 13 18 mph 989mb 46f 42f
9:00am 12ft 10s 16 20 mph 988.1mb 46f 42f
8:00am 11.5ft 10s 16 20 mph 987.3mb 46f 42f
7:00am 12ft 9s 22 25 mph 986.6mb 46f 42f
6:00am 11.5ft 10s 20 25 mph 986.4mb 46f 43f
5:00am 11.5ft 10s 16 22 mph 985.8mb 46f 42f
4:00am 12ft 10s 22 27 mph 984.9mb 46f 42f
3:00am 12ft 9s 18 22 mph 984.5mb 46f 43f
2:00am 13ft 10s 22 27 mph 983.8mb 46f 41f
1:00am 11.5ft 11s 20 27 mph 983.2mb 46f 42f
12:00am 11.5ft 11s 20 25 mph 982.2mb 46f 42f
Wed 01/18 11:00pm 10ft 10s 22 27 mph 981.2mb 46f 42f
10:00pm 10.5ft 11s 22 29 mph 980.3mb 46f 42f
9:00pm 11ft 11s 20 25 mph 978.8mb 46f 42f
8:00pm 10.5ft 9s 22 27 mph 977.6mb 46f 42f
7:00pm 11ft 10s 20 27 mph 976.4mb 46f 44f
6:00pm 12ft 8s 22 34 mph 974.9mb 46f 44f
5:00pm 12.5ft 9s 31 38 mph 973.9mb 46f 42f
4:00pm 12.5ft 8s 34 40 mph 973.4mb 46f 43f
3:00pm 11.5ft 9s 29 38 mph 973mb 47f 44f
2:00pm 12ft 12s 31 38 mph 972.7mb 47f 44f
1:00pm 12ft 11s 31 40 mph 972.2mb 47f 44f
12:00pm 11ft 10s 34 40 mph 971.4mb 47f 44f
11:00am 10ft 12s 31 40 mph 970.6mb 47f 44f
10:00am 9.5ft 11s 29 36 mph 969.2mb 47f 45f
9:00am 9.5ft 11s 25 31 mph 968.2mb 47f 45f
8:00am 10.5ft 10s 22 27 mph 967.1mb 47f 46f
7:00am 10ft 11s 18 22 mph 966.8mb 47f 46f
6:00am 10ft 12s 18 22 mph 966.9mb 47f 46f
5:00am 11ft 11s 20 25 mph 967.1mb 47f 46f
4:00am 11ft 11s 18 22 mph 967.4mb 47f 46f
3:00am 11.5ft 11s 16 20 mph 968.1mb 47f 46f
2:00am 10.5ft 12s 18 22 mph 968.6mb 47f 46f
1:00am 10.5ft 12s 20 27 mph 969mb 47f 46f
12:00am 11ft 11s 18 22 mph 969.7mb 46f 46f
Tue 01/17 11:00pm 10ft 11s 16 22 mph 970.5mb 47f 46f
10:00pm 10.5ft 10s 13 18 mph 970.9mb 47f 46f
9:00pm 10.5ft 12s 11 16 mph 971.3mb 46f 46f
8:00pm 12ft 11s 9 13 mph 972.1mb 46f 46f
7:00pm 11.5ft 10s 13 18 mph 972.9mb 46f 46f
6:00pm 13ft 11s 13 18 mph 973.7mb 47f 46f
5:00pm 13ft 11s 16 22 mph 974.7mb 47f 46f
4:00pm 12.5ft 14s 20 29 mph 975.4mb 47f 46f
3:00pm 12ft 11s 22 27 mph 976.6mb 46f 46f
2:00pm 11.5ft 10s 20 29 mph 977.8mb 46f 46f
1:00pm 12ft 11s 18 22 mph 979.4mb 46f 46f
12:00pm 12ft 12s 18 25 mph 980.6mb 46f 46f
11:00am 11ft 14s 22 29 mph 981.7mb 46f 44f
10:00am 12.5ft 14s 22 29 mph 983mb 46f 43f
9:00am 13.5ft 15s 20 29 mph 984.2mb 46f 44f
8:00am 14ft 15s 16 22 mph 985.5mb 46f 44f
7:00am 14ft 14s 16 25 mph 986.6mb 46f 44f
6:00am 15ft 15s 13 20 mph 987.9mb 46f 44f
5:00am 15.5ft 14s 11 16 mph 989.1mb 46f 44f
4:00am 16.5ft 16s 9 13 mph 990.5mb 46f 43f
3:00am 16.5ft 14s 7 13 mph 991.3mb 46f 44f
2:00am 18.5ft 16s 2 11 mph 991.9mb 46f 43f
1:00am 17.5ft 16s 7 9 mph 992.7mb 46f 43f
12:00am 19.5ft 17s 4 7 mph 993.1mb 46f 43f
Mon 01/16 11:00pm 18.5ft 16s 4 9 mph 993.4mb 46f 43f
10:00pm 19.5ft 17s 7 11 mph 993.5mb 46f 43f
9:00pm 20.5ft 15s 7 13 mph 992.8mb 46f 44f
8:00pm 21.5ft 12s 11 16 mph 992.1mb 46f 44f
7:00pm 22.5ft 16s 11 16 mph 991.7mb 46f 44f
6:00pm 22.5ft 16s 13 18 mph 991.5mb 46f 44f
5:00pm 24.5ft 16s 18 25 mph 990.9mb 46f 45f
4:00pm 23ft 16s 20 25 mph 990.4mb 46f 45f
3:00pm 22.5ft 15s 22 29 mph 990mb 46f 45f
2:00pm 24ft 16s 22 29 mph 990.2mb 46f 45f
1:00pm 22.5ft 15s 25 34 mph 991.1mb 46f 46f
12:00pm 21ft 13s 27 36 mph 991.2mb 46f 46f
10:00am 22ft 14s 31 38 mph 991.7mb 46f 46f
9:00am 21.5ft 14s 31 38 mph 992mb 46f 46f
8:00am 21.5ft 12s 34 43 mph 992mb 46f 46f
7:00am 20.5ft 10s 34 47 mph 992.1mb 46f 46f
6:00am 21.5ft 11s 34 43 mph 992.5mb 46f 46f
5:00am 22ft 12s 34 40 mph 992.7mb 46f 46f
4:00am 20.5ft 11s 34 40 mph 992.9mb 46f 47f
3:00am 21ft 10s 34 45 mph 992.9mb 46f 47f
2:00am 19ft 10s 31 38 mph 993mb 46f 46f
1:00am 21.5ft 10s 36 43 mph 992.8mb 46f 47f
12:00am  -   -  38
mph
992.9mb - 47f
Sun 01/15 11:00pm 22ft 10s 36 47 mph 993.5mb 46f 47f
10:00pm 19.5ft 10s 36 45 mph 994mb 46f 48f